sensor_id;sensor_type;location;lat;lon;timestamp;P1;durP1;ratioP1;P2;durP2;ratioP2
32321;SDS011;61553;48.994;8.940;2023-05-10T00:00:50;0.63;;;0.40;;
32321;SDS011;61553;48.994;8.940;2023-05-10T00:03:16;2.90;;;0.40;;
32321;SDS011;61553;48.994;8.940;2023-05-10T00:05:42;2.15;;;0.50;;
32321;SDS011;61553;48.994;8.940;2023-05-10T00:08:07;1.08;;;0.55;;
32321;SDS011;61553;48.994;8.940;2023-05-10T00:10:33;1.42;;;0.45;;
32321;SDS011;61553;48.994;8.940;2023-05-10T00:12:59;0.93;;;0.50;;
32321;SDS011;61553;48.994;8.940;2023-05-10T00:15:25;2.25;;;0.50;;
32321;SDS011;61553;48.994;8.940;2023-05-10T00:17:50;5.68;;;0.60;;
32321;SDS011;61553;48.994;8.940;2023-05-10T00:20:16;2.50;;;0.50;;
32321;SDS011;61553;48.994;8.940;2023-05-10T00:22:42;3.97;;;0.60;;
32321;SDS011;61553;48.994;8.940;2023-05-10T00:25:07;0.73;;;0.60;;
32321;SDS011;61553;48.994;8.940;2023-05-10T00:27:34;1.35;;;0.60;;
32321;SDS011;61553;48.994;8.940;2023-05-10T00:29:59;1.38;;;0.63;;
32321;SDS011;61553;48.994;8.940;2023-05-10T00:32:25;1.48;;;0.70;;
32321;SDS011;61553;48.994;8.940;2023-05-10T00:34:51;2.08;;;0.80;;
32321;SDS011;61553;48.994;8.940;2023-05-10T00:37:16;2.05;;;0.50;;
32321;SDS011;61553;48.994;8.940;2023-05-10T00:39:42;1.08;;;0.65;;
32321;SDS011;61553;48.994;8.940;2023-05-10T00:42:08;1.73;;;0.70;;
32321;SDS011;61553;48.994;8.940;2023-05-10T00:44:33;0.77;;;0.55;;
32321;SDS011;61553;48.994;8.940;2023-05-10T00:46:59;3.97;;;0.85;;
32321;SDS011;61553;48.994;8.940;2023-05-10T00:49:25;5.65;;;1.05;;
32321;SDS011;61553;48.994;8.940;2023-05-10T00:51:51;1.27;;;0.80;;
32321;SDS011;61553;48.994;8.940;2023-05-10T00:54:17;4.55;;;0.93;;
32321;SDS011;61553;48.994;8.940;2023-05-10T00:56:42;1.38;;;0.93;;
32321;SDS011;61553;48.994;8.940;2023-05-10T00:59:14;2.97;;;1.00;;
32321;SDS011;61553;48.994;8.940;2023-05-10T01:01:41;1.10;;;0.77;;
32321;SDS011;61553;48.994;8.940;2023-05-10T01:04:08;1.75;;;0.98;;
32321;SDS011;61553;48.994;8.940;2023-05-10T01:06:36;1.40;;;0.90;;
32321;SDS011;61553;48.994;8.940;2023-05-10T01:09:01;2.97;;;1.15;;
32321;SDS011;61553;48.994;8.940;2023-05-10T01:11:27;2.05;;;0.90;;
32321;SDS011;61553;48.994;8.940;2023-05-10T01:13:55;2.40;;;0.80;;
32321;SDS011;61553;48.994;8.940;2023-05-10T01:16:22;2.42;;;1.30;;
32321;SDS011;61553;48.994;8.940;2023-05-10T01:18:50;2.67;;;1.20;;
32321;SDS011;61553;48.994;8.940;2023-05-10T01:21:19;2.17;;;1.00;;
32321;SDS011;61553;48.994;8.940;2023-05-10T01:32:24;2.50;;;1.35;;
32321;SDS011;61553;48.994;8.940;2023-05-10T01:35:35;4.25;;;1.40;;
32321;SDS011;61553;48.994;8.940;2023-05-10T01:38:04;2.78;;;1.48;;
32321;SDS011;61553;48.994;8.940;2023-05-10T01:43:33;2.47;;;1.48;;
32321;SDS011;61553;48.994;8.940;2023-05-10T01:46:06;2.83;;;1.50;;
32321;SDS011;61553;48.994;8.940;2023-05-10T01:48:42;2.88;;;1.80;;
32321;SDS011;61553;48.994;8.940;2023-05-10T01:51:16;3.33;;;1.60;;
32321;SDS011;61553;48.994;8.940;2023-05-10T01:53:47;4.07;;;1.80;;
32321;SDS011;61553;48.994;8.940;2023-05-10T01:56:15;3.13;;;1.58;;
32321;SDS011;61553;48.994;8.940;2023-05-10T01:58:43;2.97;;;1.45;;
32321;SDS011;61553;48.994;8.940;2023-05-10T02:01:11;5.57;;;1.75;;
32321;SDS011;61553;48.994;8.940;2023-05-10T02:03:38;3.05;;;1.40;;
32321;SDS011;61553;48.994;8.940;2023-05-10T02:06:06;2.78;;;1.52;;
32321;SDS011;61553;48.994;8.940;2023-05-10T02:08:32;3.72;;;1.65;;
32321;SDS011;61553;48.994;8.940;2023-05-10T02:11:00;2.67;;;1.20;;
32321;SDS011;61553;48.994;8.940;2023-05-10T02:13:27;2.17;;;1.17;;
32321;SDS011;61553;48.994;8.940;2023-05-10T02:15:54;1.75;;;1.10;;
32321;SDS011;61553;48.994;8.940;2023-05-10T02:18:22;3.35;;;1.55;;
32321;SDS011;61553;48.994;8.940;2023-05-10T02:20:50;2.35;;;1.30;;
32321;SDS011;61553;48.994;8.940;2023-05-10T02:23:18;2.47;;;1.42;;
32321;SDS011;61553;48.994;8.940;2023-05-10T02:25:45;1.80;;;1.30;;
32321;SDS011;61553;48.994;8.940;2023-05-10T02:28:13;3.50;;;1.52;;
32321;SDS011;61553;48.994;8.940;2023-05-10T02:30:40;2.78;;;1.15;;
32321;SDS011;61553;48.994;8.940;2023-05-10T02:33:06;3.17;;;1.40;;
32321;SDS011;61553;48.994;8.940;2023-05-10T02:35:33;3.67;;;1.92;;
32321;SDS011;61553;48.994;8.940;2023-05-10T02:37:59;3.05;;;1.80;;
32321;SDS011;61553;48.994;8.940;2023-05-10T02:40:26;4.05;;;1.77;;
32321;SDS011;61553;48.994;8.940;2023-05-10T02:42:54;4.40;;;2.08;;
32321;SDS011;61553;48.994;8.940;2023-05-10T02:45:22;5.00;;;1.60;;
32321;SDS011;61553;48.994;8.940;2023-05-10T02:47:51;3.33;;;2.10;;
32321;SDS011;61553;48.994;8.940;2023-05-10T02:50:17;3.00;;;1.80;;
32321;SDS011;61553;48.994;8.940;2023-05-10T02:52:44;3.63;;;2.25;;
32321;SDS011;61553;48.994;8.940;2023-05-10T02:55:13;3.78;;;1.88;;
32321;SDS011;61553;48.994;8.940;2023-05-10T02:57:43;5.85;;;2.05;;
32321;SDS011;61553;48.994;8.940;2023-05-10T03:02:39;4.10;;;2.70;;
32321;SDS011;61553;48.994;8.940;2023-05-10T03:05:05;4.20;;;2.75;;
32321;SDS011;61553;48.994;8.940;2023-05-10T03:07:31;4.85;;;3.00;;
32321;SDS011;61553;48.994;8.940;2023-05-10T03:09:58;4.30;;;2.90;;
32321;SDS011;61553;48.994;8.940;2023-05-10T03:15:05;5.50;;;2.92;;
32321;SDS011;61553;48.994;8.940;2023-05-10T03:17:36;6.15;;;2.83;;
32321;SDS011;61553;48.994;8.940;2023-05-10T03:20:12;4.30;;;3.08;;
32321;SDS011;61553;48.994;8.940;2023-05-10T03:22:47;5.18;;;3.38;;
32321;SDS011;61553;48.994;8.940;2023-05-10T03:25:17;5.13;;;3.40;;
32321;SDS011;61553;48.994;8.940;2023-05-10T03:27:45;4.90;;;3.30;;
32321;SDS011;61553;48.994;8.940;2023-05-10T03:30:11;6.00;;;3.30;;
32321;SDS011;61553;48.994;8.940;2023-05-10T03:32:38;6.40;;;3.22;;
32321;SDS011;61553;48.994;8.940;2023-05-10T03:35:10;4.53;;;3.10;;
32321;SDS011;61553;48.994;8.940;2023-05-10T03:37:38;6.15;;;3.63;;
32321;SDS011;61553;48.994;8.940;2023-05-10T03:40:03;7.30;;;3.47;;
32321;SDS011;61553;48.994;8.940;2023-05-10T03:42:30;6.00;;;3.70;;
32321;SDS011;61553;48.994;8.940;2023-05-10T03:44:55;4.68;;;3.53;;
32321;SDS011;61553;48.994;8.940;2023-05-10T03:47:21;5.07;;;3.70;;
32321;SDS011;61553;48.994;8.940;2023-05-10T03:49:46;6.25;;;3.70;;
32321;SDS011;61553;48.994;8.940;2023-05-10T03:52:12;4.93;;;3.45;;
32321;SDS011;61553;48.994;8.940;2023-05-10T03:54:38;5.97;;;3.20;;
32321;SDS011;61553;48.994;8.940;2023-05-10T03:57:03;6.63;;;2.85;;
32321;SDS011;61553;48.994;8.940;2023-05-10T03:59:29;5.32;;;3.22;;
32321;SDS011;61553;48.994;8.940;2023-05-10T04:01:55;5.30;;;3.70;;
32321;SDS011;61553;48.994;8.940;2023-05-10T04:04:21;7.55;;;3.42;;
32321;SDS011;61553;48.994;8.940;2023-05-10T04:06:46;5.50;;;3.30;;
32321;SDS011;61553;48.994;8.940;2023-05-10T04:09:12;5.28;;;3.50;;
32321;SDS011;61553;48.994;8.940;2023-05-10T04:11:38;4.97;;;2.60;;
32321;SDS011;61553;48.994;8.940;2023-05-10T04:14:04;4.68;;;2.25;;
32321;SDS011;61553;48.994;8.940;2023-05-10T04:16:30;4.30;;;2.47;;
32321;SDS011;61553;48.994;8.940;2023-05-10T04:18:55;6.90;;;3.33;;
32321;SDS011;61553;48.994;8.940;2023-05-10T04:21:22;4.32;;;2.83;;
32321;SDS011;61553;48.994;8.940;2023-05-10T04:23:48;5.65;;;2.38;;
32321;SDS011;61553;48.994;8.940;2023-05-10T04:26:13;4.10;;;2.95;;
32321;SDS011;61553;48.994;8.940;2023-05-10T04:28:39;3.95;;;2.40;;
32321;SDS011;61553;48.994;8.940;2023-05-10T04:31:05;4.18;;;2.83;;
32321;SDS011;61553;48.994;8.940;2023-05-10T04:33:32;6.13;;;3.45;;
32321;SDS011;61553;48.994;8.940;2023-05-10T04:35:58;6.18;;;3.33;;
32321;SDS011;61553;48.994;8.940;2023-05-10T04:38:24;5.22;;;2.78;;
32321;SDS011;61553;48.994;8.940;2023-05-10T04:40:50;6.32;;;2.72;;
32321;SDS011;61553;48.994;8.940;2023-05-10T04:43:16;3.95;;;2.55;;
32321;SDS011;61553;48.994;8.940;2023-05-10T04:45:42;4.13;;;2.65;;
32321;SDS011;61553;48.994;8.940;2023-05-10T04:48:07;5.10;;;2.53;;
32321;SDS011;61553;48.994;8.940;2023-05-10T04:50:33;4.07;;;2.53;;
32321;SDS011;61553;48.994;8.940;2023-05-10T04:52:58;5.60;;;2.70;;
32321;SDS011;61553;48.994;8.940;2023-05-10T04:55:24;6.28;;;2.80;;
32321;SDS011;61553;48.994;8.940;2023-05-10T04:57:51;4.10;;;2.58;;
32321;SDS011;61553;48.994;8.940;2023-05-10T05:00:17;7.72;;;2.78;;
32321;SDS011;61553;48.994;8.940;2023-05-10T05:02:43;5.85;;;3.50;;
32321;SDS011;61553;48.994;8.940;2023-05-10T05:05:10;5.07;;;3.33;;
32321;SDS011;61553;48.994;8.940;2023-05-10T05:07:36;5.63;;;2.97;;
32321;SDS011;61553;48.994;8.940;2023-05-10T05:10:03;8.13;;;3.03;;
32321;SDS011;61553;48.994;8.940;2023-05-10T05:12:30;6.32;;;3.38;;
32321;SDS011;61553;48.994;8.940;2023-05-10T05:14:55;5.50;;;3.35;;
32321;SDS011;61553;48.994;8.940;2023-05-10T05:17:21;5.38;;;3.20;;
32321;SDS011;61553;48.994;8.940;2023-05-10T05:19:47;5.30;;;2.90;;
32321;SDS011;61553;48.994;8.940;2023-05-10T05:22:12;4.10;;;2.72;;
32321;SDS011;61553;48.994;8.940;2023-05-10T05:24:38;4.65;;;3.35;;
32321;SDS011;61553;48.994;8.940;2023-05-10T05:27:04;3.90;;;2.67;;
32321;SDS011;61553;48.994;8.940;2023-05-10T05:29:29;6.55;;;2.83;;
32321;SDS011;61553;48.994;8.940;2023-05-10T05:31:55;4.72;;;2.70;;
32321;SDS011;61553;48.994;8.940;2023-05-10T05:34:21;5.65;;;3.15;;
32321;SDS011;61553;48.994;8.940;2023-05-10T05:36:47;5.03;;;3.15;;
32321;SDS011;61553;48.994;8.940;2023-05-10T05:39:13;4.93;;;2.97;;
32321;SDS011;61553;48.994;8.940;2023-05-10T05:41:38;9.20;;;3.03;;
32321;SDS011;61553;48.994;8.940;2023-05-10T05:44:04;4.93;;;2.85;;
32321;SDS011;61553;48.994;8.940;2023-05-10T05:46:30;8.50;;;3.33;;
32321;SDS011;61553;48.994;8.940;2023-05-10T05:48:55;4.68;;;3.10;;
32321;SDS011;61553;48.994;8.940;2023-05-10T05:51:21;5.75;;;3.35;;
32321;SDS011;61553;48.994;8.940;2023-05-10T05:53:47;6.75;;;2.92;;
32321;SDS011;61553;48.994;8.940;2023-05-10T05:56:12;7.20;;;2.88;;
32321;SDS011;61553;48.994;8.940;2023-05-10T05:58:38;5.63;;;2.88;;
32321;SDS011;61553;48.994;8.940;2023-05-10T06:01:04;6.05;;;3.72;;
32321;SDS011;61553;48.994;8.940;2023-05-10T06:03:30;4.63;;;3.00;;
32321;SDS011;61553;48.994;8.940;2023-05-10T06:05:55;4.57;;;3.00;;
32321;SDS011;61553;48.994;8.940;2023-05-10T06:08:21;7.25;;;3.20;;
32321;SDS011;61553;48.994;8.940;2023-05-10T06:10:47;6.40;;;3.10;;
32321;SDS011;61553;48.994;8.940;2023-05-10T06:13:13;4.78;;;2.92;;
32321;SDS011;61553;48.994;8.940;2023-05-10T06:15:38;6.70;;;2.70;;
32321;SDS011;61553;48.994;8.940;2023-05-10T06:18:04;6.13;;;2.42;;
32321;SDS011;61553;48.994;8.940;2023-05-10T06:20:30;5.30;;;2.80;;
32321;SDS011;61553;48.994;8.940;2023-05-10T06:22:56;4.28;;;2.42;;
32321;SDS011;61553;48.994;8.940;2023-05-10T06:25:22;6.38;;;2.47;;
32321;SDS011;61553;48.994;8.940;2023-05-10T06:27:48;4.43;;;2.20;;
32321;SDS011;61553;48.994;8.940;2023-05-10T06:30:14;9.43;;;2.78;;
32321;SDS011;61553;48.994;8.940;2023-05-10T06:32:40;6.10;;;3.17;;
32321;SDS011;61553;48.994;8.940;2023-05-10T06:35:06;3.83;;;2.22;;
32321;SDS011;61553;48.994;8.940;2023-05-10T06:37:32;6.50;;;2.05;;
32321;SDS011;61553;48.994;8.940;2023-05-10T06:39:59;5.85;;;1.73;;
32321;SDS011;61553;48.994;8.940;2023-05-10T06:42:25;3.55;;;1.40;;
32321;SDS011;61553;48.994;8.940;2023-05-10T06:44:52;4.03;;;1.60;;
32321;SDS011;61553;48.994;8.940;2023-05-10T06:47:18;5.53;;;1.58;;
32321;SDS011;61553;48.994;8.940;2023-05-10T06:49:43;4.18;;;1.42;;
32321;SDS011;61553;48.994;8.940;2023-05-10T06:52:09;2.35;;;1.20;;
32321;SDS011;61553;48.994;8.940;2023-05-10T06:54:34;2.20;;;1.30;;
32321;SDS011;61553;48.994;8.940;2023-05-10T06:57:00;2.45;;;1.20;;
32321;SDS011;61553;48.994;8.940;2023-05-10T06:59:28;4.25;;;1.30;;
32321;SDS011;61553;48.994;8.940;2023-05-10T07:01:53;2.60;;;1.50;;
32321;SDS011;61553;48.994;8.940;2023-05-10T07:04:19;2.72;;;1.08;;
32321;SDS011;61553;48.994;8.940;2023-05-10T07:06:45;3.22;;;1.13;;
32321;SDS011;61553;48.994;8.940;2023-05-10T07:09:11;5.13;;;1.45;;
32321;SDS011;61553;48.994;8.940;2023-05-10T07:11:38;2.47;;;1.20;;
32321;SDS011;61553;48.994;8.940;2023-05-10T07:14:04;2.03;;;1.20;;
32321;SDS011;61553;48.994;8.940;2023-05-10T07:16:30;6.38;;;1.35;;
32321;SDS011;61553;48.994;8.940;2023-05-10T07:18:56;2.33;;;1.50;;
32321;SDS011;61553;48.994;8.940;2023-05-10T07:21:21;2.70;;;1.20;;
32321;SDS011;61553;48.994;8.940;2023-05-10T07:23:49;1.88;;;0.88;;
32321;SDS011;61553;48.994;8.940;2023-05-10T07:26:15;1.90;;;1.17;;
32321;SDS011;61553;48.994;8.940;2023-05-10T07:28:41;1.83;;;0.90;;
32321;SDS011;61553;48.994;8.940;2023-05-10T07:31:07;1.77;;;1.00;;
32321;SDS011;61553;48.994;8.940;2023-05-10T07:33:32;3.10;;;1.10;;
32321;SDS011;61553;48.994;8.940;2023-05-10T07:35:58;3.88;;;1.10;;
32321;SDS011;61553;48.994;8.940;2023-05-10T07:38:23;4.28;;;1.13;;
32321;SDS011;61553;48.994;8.940;2023-05-10T07:40:49;2.33;;;0.60;;
32321;SDS011;61553;48.994;8.940;2023-05-10T07:43:15;2.15;;;0.82;;
32321;SDS011;61553;48.994;8.940;2023-05-10T07:45:40;1.13;;;0.73;;
32321;SDS011;61553;48.994;8.940;2023-05-10T07:48:06;3.13;;;0.65;;
32321;SDS011;61553;48.994;8.940;2023-05-10T07:50:32;2.72;;;0.60;;
32321;SDS011;61553;48.994;8.940;2023-05-10T07:52:58;3.47;;;0.63;;
32321;SDS011;61553;48.994;8.940;2023-05-10T07:55:23;1.85;;;0.90;;
32321;SDS011;61553;48.994;8.940;2023-05-10T07:57:49;1.45;;;0.70;;
32321;SDS011;61553;48.994;8.940;2023-05-10T08:00:18;0.77;;;0.47;;
32321;SDS011;61553;48.994;8.940;2023-05-10T08:02:44;2.03;;;0.95;;
32321;SDS011;61553;48.994;8.940;2023-05-10T08:05:10;1.38;;;0.60;;
32321;SDS011;61553;48.994;8.940;2023-05-10T08:07:36;1.27;;;0.70;;
32321;SDS011;61553;48.994;8.940;2023-05-10T08:10:02;2.42;;;0.68;;
32321;SDS011;61553;48.994;8.940;2023-05-10T08:12:28;3.80;;;0.80;;
32321;SDS011;61553;48.994;8.940;2023-05-10T08:14:53;1.20;;;0.50;;
32321;SDS011;61553;48.994;8.940;2023-05-10T08:17:19;1.15;;;0.43;;
32321;SDS011;61553;48.994;8.940;2023-05-10T08:19:45;1.15;;;0.43;;
32321;SDS011;61553;48.994;8.940;2023-05-10T08:22:10;0.65;;;0.45;;
32321;SDS011;61553;48.994;8.940;2023-05-10T08:24:36;2.05;;;0.40;;
32321;SDS011;61553;48.994;8.940;2023-05-10T08:27:04;3.58;;;0.45;;
32321;SDS011;61553;48.994;8.940;2023-05-10T08:29:30;1.45;;;0.52;;
32321;SDS011;61553;48.994;8.940;2023-05-10T08:31:56;1.33;;;0.60;;
32321;SDS011;61553;48.994;8.940;2023-05-10T08:34:22;1.15;;;0.40;;
32321;SDS011;61553;48.994;8.940;2023-05-10T08:36:48;0.40;;;0.32;;
32321;SDS011;61553;48.994;8.940;2023-05-10T08:39:14;2.17;;;0.47;;
32321;SDS011;61553;48.994;8.940;2023-05-10T08:41:39;1.77;;;0.60;;
32321;SDS011;61553;48.994;8.940;2023-05-10T08:44:09;1.27;;;0.57;;
32321;SDS011;61553;48.994;8.940;2023-05-10T08:46:35;2.35;;;0.70;;
32321;SDS011;61553;48.994;8.940;2023-05-10T08:49:04;1.50;;;0.60;;
32321;SDS011;61553;48.994;8.940;2023-05-10T08:51:37;2.45;;;0.75;;
32321;SDS011;61553;48.994;8.940;2023-05-10T08:54:07;2.05;;;0.68;;
32321;SDS011;61553;48.994;8.940;2023-05-10T08:56:32;1.23;;;0.50;;
32321;SDS011;61553;48.994;8.940;2023-05-10T08:58:58;1.23;;;0.50;;
32321;SDS011;61553;48.994;8.940;2023-05-10T09:01:24;4.88;;;1.08;;
32321;SDS011;61553;48.994;8.940;2023-05-10T09:03:51;2.22;;;0.50;;
32321;SDS011;61553;48.994;8.940;2023-05-10T09:06:17;1.08;;;0.55;;
32321;SDS011;61553;48.994;8.940;2023-05-10T09:08:43;3.60;;;0.65;;
32321;SDS011;61553;48.994;8.940;2023-05-10T09:11:11;2.05;;;0.73;;
32321;SDS011;61553;48.994;8.940;2023-05-10T09:13:37;2.38;;;0.40;;
32321;SDS011;61553;48.994;8.940;2023-05-10T09:16:03;1.85;;;0.60;;
32321;SDS011;61553;48.994;8.940;2023-05-10T09:18:29;1.38;;;0.60;;
32321;SDS011;61553;48.994;8.940;2023-05-10T09:20:55;2.25;;;0.77;;
32321;SDS011;61553;48.994;8.940;2023-05-10T09:23:21;1.38;;;0.68;;
32321;SDS011;61553;48.994;8.940;2023-05-10T09:25:47;1.90;;;0.57;;
32321;SDS011;61553;48.994;8.940;2023-05-10T09:28:12;1.63;;;0.50;;
32321;SDS011;61553;48.994;8.940;2023-05-10T09:30:38;0.95;;;0.40;;
32321;SDS011;61553;48.994;8.940;2023-05-10T09:33:04;1.02;;;0.50;;
32321;SDS011;61553;48.994;8.940;2023-05-10T09:35:31;1.15;;;0.40;;
32321;SDS011;61553;48.994;8.940;2023-05-10T09:38:00;1.52;;;0.57;;
32321;SDS011;61553;48.994;8.940;2023-05-10T09:40:28;2.92;;;0.50;;
32321;SDS011;61553;48.994;8.940;2023-05-10T09:43:02;2.35;;;0.75;;
32321;SDS011;61553;48.994;8.940;2023-05-10T09:45:30;1.45;;;0.43;;
32321;SDS011;61553;48.994;8.940;2023-05-10T09:47:57;3.67;;;0.55;;
32321;SDS011;61553;48.994;8.940;2023-05-10T09:50:23;2.20;;;0.22;;
32321;SDS011;61553;48.994;8.940;2023-05-10T09:55:16;1.95;;;0.40;;
32321;SDS011;61553;48.994;8.940;2023-05-10T09:57:43;1.17;;;0.50;;
32321;SDS011;61553;48.994;8.940;2023-05-10T10:00:10;0.50;;;0.28;;
32321;SDS011;61553;48.994;8.940;2023-05-10T10:02:41;1.55;;;0.73;;
32321;SDS011;61553;48.994;8.940;2023-05-10T10:05:06;1.17;;;0.40;;
32321;SDS011;61553;48.994;8.940;2023-05-10T10:07:32;7.03;;;0.88;;
32321;SDS011;61553;48.994;8.940;2023-05-10T10:09:59;5.05;;;0.73;;
32321;SDS011;61553;48.994;8.940;2023-05-10T10:12:25;2.35;;;0.90;;
32321;SDS011;61553;48.994;8.940;2023-05-10T10:14:51;3.22;;;0.80;;
32321;SDS011;61553;48.994;8.940;2023-05-10T10:17:18;7.28;;;1.13;;
32321;SDS011;61553;48.994;8.940;2023-05-10T10:19:44;1.65;;;0.70;;
32321;SDS011;61553;48.994;8.940;2023-05-10T10:22:11;2.88;;;0.80;;
32321;SDS011;61553;48.994;8.940;2023-05-10T10:24:37;2.97;;;0.95;;
32321;SDS011;61553;48.994;8.940;2023-05-10T10:27:23;1.33;;;0.68;;
32321;SDS011;61553;48.994;8.940;2023-05-10T10:30:12;3.95;;;1.10;;
32321;SDS011;61553;48.994;8.940;2023-05-10T10:35:40;1.55;;;0.73;;
32321;SDS011;61553;48.994;8.940;2023-05-10T10:38:08;1.23;;;0.55;;
32321;SDS011;61553;48.994;8.940;2023-05-10T10:40:34;2.20;;;0.50;;
32321;SDS011;61553;48.994;8.940;2023-05-10T10:48:43;2.92;;;0.63;;
32321;SDS011;61553;48.994;8.940;2023-05-10T10:51:13;2.45;;;0.82;;
32321;SDS011;61553;48.994;8.940;2023-05-10T10:53:40;4.43;;;1.02;;
32321;SDS011;61553;48.994;8.940;2023-05-10T10:56:12;2.13;;;0.70;;
32321;SDS011;61553;48.994;8.940;2023-05-10T10:58:40;2.90;;;0.82;;
32321;SDS011;61553;48.994;8.940;2023-05-10T11:01:15;1.42;;;0.80;;
32321;SDS011;61553;48.994;8.940;2023-05-10T11:03:55;3.35;;;0.70;;
32321;SDS011;61553;48.994;8.940;2023-05-10T11:06:33;7.43;;;1.10;;
32321;SDS011;61553;48.994;8.940;2023-05-10T11:09:09;2.05;;;1.00;;
32321;SDS011;61553;48.994;8.940;2023-05-10T11:11:37;4.65;;;1.02;;
32321;SDS011;61553;48.994;8.940;2023-05-10T11:14:22;3.67;;;0.65;;
32321;SDS011;61553;48.994;8.940;2023-05-10T11:16:47;2.03;;;0.55;;
32321;SDS011;61553;48.994;8.940;2023-05-10T11:19:14;3.05;;;0.80;;
32321;SDS011;61553;48.994;8.940;2023-05-10T11:21:48;3.38;;;0.88;;
32321;SDS011;61553;48.994;8.940;2023-05-10T11:24:36;1.80;;;0.80;;
32321;SDS011;61553;48.994;8.940;2023-05-10T11:27:02;4.82;;;0.90;;
32321;SDS011;61553;48.994;8.940;2023-05-10T11:29:28;1.77;;;0.85;;
32321;SDS011;61553;48.994;8.940;2023-05-10T11:31:56;1.83;;;1.00;;
32321;SDS011;61553;48.994;8.940;2023-05-10T11:34:29;4.82;;;1.08;;
32321;SDS011;61553;48.994;8.940;2023-05-10T11:36:56;3.13;;;1.20;;
32321;SDS011;61553;48.994;8.940;2023-05-10T11:39:26;3.83;;;1.40;;
32321;SDS011;61553;48.994;8.940;2023-05-10T11:41:52;2.25;;;1.05;;
32321;SDS011;61553;48.994;8.940;2023-05-10T11:44:18;3.60;;;1.50;;
32321;SDS011;61553;48.994;8.940;2023-05-10T11:46:44;4.40;;;1.40;;
32321;SDS011;61553;48.994;8.940;2023-05-10T11:49:09;2.50;;;1.40;;
32321;SDS011;61553;48.994;8.940;2023-05-10T11:51:36;9.95;;;1.73;;
32321;SDS011;61553;48.994;8.940;2023-05-10T11:54:05;5.43;;;1.83;;
32321;SDS011;61553;48.994;8.940;2023-05-10T11:56:35;6.57;;;1.52;;
32321;SDS011;61553;48.994;8.940;2023-05-10T11:59:02;4.53;;;1.70;;
32321;SDS011;61553;48.994;8.940;2023-05-10T12:01:29;4.13;;;1.70;;
32321;SDS011;61553;48.994;8.940;2023-05-10T12:03:56;3.70;;;1.35;;
32321;SDS011;61553;48.994;8.940;2023-05-10T12:06:29;5.72;;;1.35;;
32321;SDS011;61553;48.994;8.940;2023-05-10T12:08:57;2.65;;;1.10;;
32321;SDS011;61553;48.994;8.940;2023-05-10T12:11:27;2.65;;;1.05;;
32321;SDS011;61553;48.994;8.940;2023-05-10T12:13:53;3.78;;;1.30;;
32321;SDS011;61553;48.994;8.940;2023-05-10T12:16:22;3.25;;;1.08;;
32321;SDS011;61553;48.994;8.940;2023-05-10T12:18:50;5.45;;;1.40;;
32321;SDS011;61553;48.994;8.940;2023-05-10T12:21:17;6.38;;;1.20;;
32321;SDS011;61553;48.994;8.940;2023-05-10T12:23:45;6.05;;;1.40;;
32321;SDS011;61553;48.994;8.940;2023-05-10T12:26:12;3.05;;;0.73;;
32321;SDS011;61553;48.994;8.940;2023-05-10T12:28:38;5.65;;;1.30;;
32321;SDS011;61553;48.994;8.940;2023-05-10T12:31:06;4.13;;;1.48;;
32321;SDS011;61553;48.994;8.940;2023-05-10T12:33:39;2.75;;;0.90;;
32321;SDS011;61553;48.994;8.940;2023-05-10T12:36:07;3.17;;;0.98;;
32321;SDS011;61553;48.994;8.940;2023-05-10T12:38:35;4.35;;;1.00;;
32321;SDS011;61553;48.994;8.940;2023-05-10T12:41:06;3.00;;;0.90;;
32321;SDS011;61553;48.994;8.940;2023-05-10T12:43:33;2.85;;;0.82;;
32321;SDS011;61553;48.994;8.940;2023-05-10T12:48:35;4.10;;;1.00;;
32321;SDS011;61553;48.994;8.940;2023-05-10T12:51:02;2.45;;;0.80;;
32321;SDS011;61553;48.994;8.940;2023-05-10T12:53:28;3.75;;;0.93;;
32321;SDS011;61553;48.994;8.940;2023-05-10T12:55:54;2.53;;;0.80;;
32321;SDS011;61553;48.994;8.940;2023-05-10T12:58:21;3.80;;;0.90;;
32321;SDS011;61553;48.994;8.940;2023-05-10T13:00:46;3.38;;;1.00;;
32321;SDS011;61553;48.994;8.940;2023-05-10T13:03:12;4.90;;;1.10;;
32321;SDS011;61553;48.994;8.940;2023-05-10T13:05:38;1.95;;;0.80;;
32321;SDS011;61553;48.994;8.940;2023-05-10T13:08:03;3.33;;;0.98;;
32321;SDS011;61553;48.994;8.940;2023-05-10T13:10:30;3.97;;;0.90;;
32321;SDS011;61553;48.994;8.940;2023-05-10T13:12:56;4.60;;;1.23;;
32321;SDS011;61553;48.994;8.940;2023-05-10T13:15:25;2.45;;;0.90;;
32321;SDS011;61553;48.994;8.940;2023-05-10T13:17:51;2.85;;;0.82;;
32321;SDS011;61553;48.994;8.940;2023-05-10T13:20:18;4.43;;;1.05;;
32321;SDS011;61553;48.994;8.940;2023-05-10T13:22:43;3.20;;;0.70;;
32321;SDS011;61553;48.994;8.940;2023-05-10T13:25:10;3.58;;;0.63;;
32321;SDS011;61553;48.994;8.940;2023-05-10T13:27:36;4.22;;;0.70;;
32321;SDS011;61553;48.994;8.940;2023-05-10T13:30:02;1.70;;;0.57;;
32321;SDS011;61553;48.994;8.940;2023-05-10T13:32:29;1.65;;;0.63;;
32321;SDS011;61553;48.994;8.940;2023-05-10T13:34:55;1.35;;;0.50;;
32321;SDS011;61553;48.994;8.940;2023-05-10T13:37:20;2.15;;;0.60;;
32321;SDS011;61553;48.994;8.940;2023-05-10T13:39:47;1.52;;;0.50;;
32321;SDS011;61553;48.994;8.940;2023-05-10T13:42:14;3.15;;;0.70;;
32321;SDS011;61553;48.994;8.940;2023-05-10T13:44:39;2.10;;;0.43;;
32321;SDS011;61553;48.994;8.940;2023-05-10T13:47:05;3.33;;;0.75;;
32321;SDS011;61553;48.994;8.940;2023-05-10T13:49:31;2.25;;;0.60;;
32321;SDS011;61553;48.994;8.940;2023-05-10T13:51:56;2.03;;;0.40;;
32321;SDS011;61553;48.994;8.940;2023-05-10T13:54:23;2.85;;;0.65;;
32321;SDS011;61553;48.994;8.940;2023-05-10T13:56:49;4.82;;;0.60;;
32321;SDS011;61553;48.994;8.940;2023-05-10T13:59:14;4.28;;;0.80;;
32321;SDS011;61553;48.994;8.940;2023-05-10T14:01:40;2.65;;;0.57;;
32321;SDS011;61553;48.994;8.940;2023-05-10T14:04:07;2.60;;;0.50;;
32321;SDS011;61553;48.994;8.940;2023-05-10T14:06:38;2.42;;;0.85;;
32321;SDS011;61553;48.994;8.940;2023-05-10T14:09:04;2.13;;;0.57;;
32321;SDS011;61553;48.994;8.940;2023-05-10T14:11:29;2.22;;;0.70;;
32321;SDS011;61553;48.994;8.940;2023-05-10T14:13:55;1.58;;;0.50;;
32321;SDS011;61553;48.994;8.940;2023-05-10T14:16:20;2.97;;;0.47;;
32321;SDS011;61553;48.994;8.940;2023-05-10T14:18:46;1.23;;;0.60;;
32321;SDS011;61553;48.994;8.940;2023-05-10T14:21:12;1.45;;;0.52;;
32321;SDS011;61553;48.994;8.940;2023-05-10T14:23:38;2.83;;;0.68;;
32321;SDS011;61553;48.994;8.940;2023-05-10T14:26:04;2.70;;;0.52;;
32321;SDS011;61553;48.994;8.940;2023-05-10T14:28:30;5.38;;;0.80;;
32321;SDS011;61553;48.994;8.940;2023-05-10T14:30:55;3.03;;;0.80;;
32321;SDS011;61553;48.994;8.940;2023-05-10T14:33:21;2.45;;;1.23;;
32321;SDS011;61553;48.994;8.940;2023-05-10T14:35:47;3.80;;;0.75;;
32321;SDS011;61553;48.994;8.940;2023-05-10T14:38:13;4.15;;;1.63;;
32321;SDS011;61553;48.994;8.940;2023-05-10T14:40:39;1.08;;;0.65;;
32321;SDS011;61553;48.994;8.940;2023-05-10T14:43:05;1.98;;;0.60;;
32321;SDS011;61553;48.994;8.940;2023-05-10T14:45:31;2.63;;;1.05;;
32321;SDS011;61553;48.994;8.940;2023-05-10T14:47:56;2.25;;;0.60;;
32321;SDS011;61553;48.994;8.940;2023-05-10T14:50:22;5.20;;;0.73;;
32321;SDS011;61553;48.994;8.940;2023-05-10T14:52:48;1.23;;;0.40;;
32321;SDS011;61553;48.994;8.940;2023-05-10T14:55:14;2.20;;;0.63;;
32321;SDS011;61553;48.994;8.940;2023-05-10T14:57:40;4.10;;;0.90;;
32321;SDS011;61553;48.994;8.940;2023-05-10T15:00:06;2.63;;;0.80;;
32321;SDS011;61553;48.994;8.940;2023-05-10T15:02:32;2.72;;;0.75;;
32321;SDS011;61553;48.994;8.940;2023-05-10T15:04:58;2.53;;;0.82;;
32321;SDS011;61553;48.994;8.940;2023-05-10T15:07:23;2.20;;;0.80;;
32321;SDS011;61553;48.994;8.940;2023-05-10T15:09:50;1.73;;;0.77;;
32321;SDS011;61553;48.994;8.940;2023-05-10T15:12:16;3.45;;;0.57;;
32321;SDS011;61553;48.994;8.940;2023-05-10T15:14:42;1.90;;;0.50;;
32321;SDS011;61553;48.994;8.940;2023-05-10T15:17:08;0.55;;;0.32;;